Time;durP1;ratioP1;P1;durP2;ratioP2;P2;SDS_P1;SDS_P2;PMS_P1;PMS_P2;Temp;Humidity;BMP_temperature;BMP_pressure;BME280_temperature;BME280_humidity;BME280_pressure;Samples;Min_cycle;Max_cycle;Signal;HPM_P1;HPM_P2
2021/08/29 00:02:18;;;;;;;5.20;3.50;;;;;;;14.44;77.91;101037.13;5063810;28;20024;-72
2021/08/29 00:04:44;;;;;;;6.75;4.20;;;;;;;14.43;77.81;101032.75;5063526;28;20028;-72
2021/08/29 00:07:09;;;;;;;6.47;4.53;;;;;;;14.44;77.80;101029.28;5063587;28;20085;-73
2021/08/29 00:09:35;;;;;;;7.05;5.07;;;;;;;14.38;77.85;101028.47;5063664;28;20025;-72
2021/08/29 00:12:00;;;;;;;8.25;5.00;;;;;;;14.40;77.94;101035.41;5063287;28;20080;-72
2021/08/29 00:14:26;;;;;;;8.13;5.03;;;;;;;14.38;78.12;101025.88;5063610;28;20036;-73
2021/08/29 00:16:51;;;;;;;7.95;4.90;;;;;;;14.37;78.17;101028.50;5063650;28;20017;-74
2021/08/29 00:19:17;;;;;;;7.47;4.80;;;;;;;14.36;78.27;101039.84;5063497;28;20021;-74
2021/08/29 00:21:42;;;;;;;9.18;5.13;;;;;;;14.33;78.30;101038.13;5063268;28;20435;-74
2021/08/29 00:24:08;;;;;;;6.82;4.35;;;;;;;14.32;78.45;101036.41;5063302;28;20013;-73
2021/08/29 00:26:33;;;;;;;9.20;5.20;;;;;;;14.28;78.59;101039.91;5063279;28;20086;-74
2021/08/29 00:28:59;;;;;;;8.02;4.50;;;;;;;14.28;78.42;101037.31;5063403;28;20484;-74
2021/08/29 00:31:24;;;;;;;9.20;4.85;;;;;;;14.25;78.83;101038.22;5063224;28;20055;-74
2021/08/29 00:33:49;;;;;;;8.27;4.78;;;;;;;14.19;79.00;101029.59;5063302;28;20037;-71
2021/08/29 00:36:15;;;;;;;9.15;4.93;;;;;;;14.34;78.85;101039.88;5063208;28;20033;-74
2021/08/29 00:38:40;;;;;;;7.03;4.43;;;;;;;14.29;78.91;101046.91;5063359;28;20040;-70
2021/08/29 00:41:07;;;;;;;8.02;5.30;;;;;;;14.27;78.98;101030.38;5063236;28;20075;-72
2021/08/29 00:43:39;;;;;;;10.35;5.57;;;;;;;14.28;78.96;101024.25;5063038;28;20032;-74
2021/08/29 00:46:06;;;;;;;10.27;5.65;;;;;;;14.33;78.83;101038.13;5063586;28;20021;-74
2021/08/29 00:48:31;;;;;;;10.32;5.60;;;;;;;14.35;78.84;101040.72;5063132;28;20024;-74
2021/08/29 00:50:57;;;;;;;9.52;5.55;;;;;;;14.31;78.81;101036.44;5062031;28;20021;-74
2021/08/29 00:53:22;;;;;;;7.97;4.60;;;;;;;14.33;78.61;101032.06;5063147;28;20092;-74
2021/08/29 00:55:49;;;;;;;8.80;5.38;;;;;;;14.37;78.82;101036.34;5063001;28;20050;-74
2021/08/29 00:58:15;;;;;;;7.45;4.90;;;;;;;14.33;79.00;101032.91;5063009;28;20025;-74
2021/08/29 01:00:42;;;;;;;8.43;5.00;;;;;;;14.36;78.94;101026.78;5062874;28;20025;-72
2021/08/29 01:03:30;;;;;;;7.93;5.35;;;;;;;14.42;78.49;101036.28;5062939;28;20021;-72
2021/08/29 01:06:28;;;;;;;8.27;5.18;;;;;;;14.38;78.77;101032.81;5063161;28;20074;-72
2021/08/29 01:08:59;;;;;;;10.32;5.68;;;;;;;14.41;78.82;101022.34;5063064;28;20025;-72
2021/08/29 01:11:26;;;;;;;7.60;4.13;;;;;;;14.39;78.55;101037.19;5063097;28;20064;-73
2021/08/29 01:13:58;;;;;;;7.28;4.50;;;;;;;14.40;78.63;101038.03;5063299;28;20036;-73
2021/08/29 01:16:24;;;;;;;;;;;;;;;14.51;78.61;101046.59;5065889;28;20029;-72
2021/08/29 01:18:53;;;;;;;8.00;5.45;;;;;;;14.40;78.70;101044.13;5067284;28;19909;-72
2021/08/29 01:21:25;;;;;;;9.30;5.95;;;;;;;14.43;78.81;101040.59;5065620;28;20048;-72
2021/08/29 01:23:54;;;;;;;8.35;5.15;;;;;;;14.46;78.68;101048.38;5065666;28;20021;-73
2021/08/29 01:26:35;;;;;;;9.55;5.78;;;;;;;14.45;78.94;101041.44;5067114;28;20021;-73
2021/08/29 01:29:06;;;;;;;8.52;5.47;;;;;;;14.49;78.50;101044.00;5067211;28;20025;-74
2021/08/29 01:31:34;;;;;;;8.40;5.03;;;;;;;14.47;78.66;101050.97;5067019;28;20071;-72
2021/08/29 01:34:03;;;;;;;8.88;5.80;;;;;;;14.46;78.91;101043.16;5066657;28;20269;-72
2021/08/29 01:36:31;;;;;;;8.30;5.03;;;;;;;14.46;78.78;101044.03;5066963;28;20512;-73
2021/08/29 01:38:58;;;;;;;8.88;6.30;;;;;;;14.50;78.73;101055.31;5067014;28;20481;-72
2021/08/29 01:41:24;;;;;;;13.95;5.88;;;;;;;14.43;78.86;101037.97;5067045;28;20221;-73
2021/08/29 01:43:51;;;;;;;8.32;4.93;;;;;;;14.50;78.69;101047.47;5066570;28;20390;-70
2021/08/29 01:46:18;;;;;;;9.10;6.03;;;;;;;14.48;78.76;101051.84;5065418;28;20013;-71
2021/08/29 01:48:45;;;;;;;9.00;5.65;;;;;;;14.47;78.58;101044.91;5066851;28;20021;-72
2021/08/29 01:51:11;;;;;;;9.50;6.20;;;;;;;14.50;78.95;101050.09;5066710;28;20376;-73
2021/08/29 01:53:37;;;;;;;11.02;5.72;;;;;;;14.42;78.82;101031.91;5066605;28;20049;-73
2021/08/29 01:56:04;;;;;;;12.00;6.97;;;;;;;14.48;78.79;101044.00;5066555;28;20017;-73
2021/08/29 01:58:29;;;;;;;9.48;6.10;;;;;;;14.53;78.83;101054.41;5066485;28;20024;-73
2021/08/29 02:00:57;;;;;;;9.65;5.57;;;;;;;14.52;78.62;101053.53;5066286;28;20027;-72
2021/08/29 02:03:24;;;;;;;11.75;7.15;;;;;;;14.48;79.02;101046.63;5066280;28;20090;-73
2021/08/29 02:05:57;;;;;;;11.25;6.88;;;;;;;14.46;78.94;101037.94;5066009;28;20041;-73
2021/08/29 02:08:25;;;;;;;11.63;7.25;;;;;;;14.43;78.97;101033.63;5066375;28;20029;-72
2021/08/29 02:10:52;;;;;;;10.38;6.70;;;;;;;14.44;79.15;101043.19;5065962;28;20489;-73
2021/08/29 02:13:22;;;;;;;11.77;6.97;;;;;;;14.43;79.31;101040.59;5066307;28;20033;-73
2021/08/29 02:15:59;;;;;;;12.10;7.13;;;;;;;14.38;79.10;101030.22;5066085;28;20484;-72
2021/08/29 02:18:27;;;;;;;11.85;7.03;;;;;;;14.37;79.15;101029.38;5066068;28;20024;-74
2021/08/29 02:20:53;;;;;;;14.40;6.88;;;;;;;14.49;78.68;101032.66;5065915;28;20078;-74
2021/08/29 02:23:21;;;;;;;12.93;8.13;;;;;;;14.43;79.02;101022.31;5065816;28;20021;-74
2021/08/29 02:25:48;;;;;;;16.48;6.93;;;;;;;14.45;79.06;101021.41;5064582;28;20013;-74
2021/08/29 02:28:14;;;;;;;9.68;5.88;;;;;;;14.40;79.19;101028.47;5065776;28;20404;-73
2021/08/29 02:30:41;;;;;;;10.82;6.32;;;;;;;14.44;78.96;101018.84;5065911;28;20100;-73
2021/08/29 02:33:07;;;;;;;11.38;8.18;;;;;;;14.36;79.12;101021.56;5065732;28;20029;-73
2021/08/29 02:35:33;;;;;;;11.85;7.43;;;;;;;14.43;79.17;101014.47;5065689;28;20028;-73
2021/08/29 02:38:00;;;;;;;13.55;7.88;;;;;;;14.43;79.24;101022.31;5065630;28;20028;-73
2021/08/29 02:40:28;;;;;;;13.30;7.15;;;;;;;14.42;79.10;101026.69;5065616;28;20021;-73
2021/08/29 02:42:54;;;;;;;15.45;8.95;;;;;;;14.37;79.23;101015.44;5065381;28;20029;-73
2021/08/29 02:45:20;;;;;;;10.25;6.50;;;;;;;14.45;78.87;101025.78;5065729;28;20016;-72
2021/08/29 02:47:46;;;;;;;15.13;8.85;;;;;;;14.40;79.53;101014.53;5065564;28;20040;-74
2021/08/29 02:50:13;;;;;;;17.20;7.72;;;;;;;14.45;79.21;101020.56;5065303;28;20044;-74
2021/08/29 02:52:39;;;;;;;16.77;8.55;;;;;;;14.40;79.44;101017.13;5065409;28;20024;-74
2021/08/29 02:55:05;;;;;;;12.23;7.15;;;;;;;14.35;79.44;101010.25;5065306;28;20473;-73
2021/08/29 02:57:34;;;;;;;12.25;7.53;;;;;;;14.45;79.20;101017.94;5065184;28;20025;-73
2021/08/29 03:00:00;;;;;;;14.57;8.27;;;;;;;14.48;78.85;101023.13;5065140;28;20025;-72
2021/08/29 03:02:25;;;;;;;13.07;7.93;;;;;;;14.43;79.10;101028.41;5064252;28;20023;-73
2021/08/29 03:04:50;;;;;;;16.23;8.27;;;;;;;14.43;79.28;101025.78;5065325;28;20028;-74
2021/08/29 03:07:16;;;;;;;14.68;8.25;;;;;;;14.43;79.46;101023.19;5065320;28;20025;-72
2021/08/29 03:09:41;;;;;;;12.88;8.65;;;;;;;14.45;79.07;101020.56;5065222;28;20032;-73
2021/08/29 03:12:09;;;;;;;12.10;7.85;;;;;;;14.41;79.20;101018.88;5065706;28;20049;-72
2021/08/29 03:14:37;;;;;;;12.13;7.25;;;;;;;14.44;79.01;101021.44;5065073;28;20039;-72
2021/08/29 03:17:03;;;;;;;13.65;8.35;;;;;;;14.42;79.05;101011.03;5064958;28;20036;-73
2021/08/29 03:19:28;;;;;;;11.68;7.68;;;;;;;14.45;79.21;101020.56;5065791;28;20461;-73
2021/08/29 03:21:54;;;;;;;17.05;8.15;;;;;;;14.54;78.51;101017.78;5067538;28;20381;-72
2021/08/29 03:24:20;;;;;;;12.25;8.10;;;;;;;14.49;78.73;101017.00;5064829;28;20103;-74
2021/08/29 03:26:46;;;;;;;13.73;7.35;;;;;;;14.45;78.84;101023.16;5064746;28;20017;-71
2021/08/29 03:29:12;;;;;;;16.08;6.63;;;;;;;14.42;79.08;101023.22;5064746;28;20290;-71
2021/08/29 03:31:37;;;;;;;11.25;7.22;;;;;;;14.43;78.76;101014.47;5064689;28;20056;-72
2021/08/29 03:34:05;;;;;;;14.43;7.70;;;;;;;14.49;78.85;101019.59;5064584;28;20025;-72
2021/08/29 03:36:32;;;;;;;14.55;8.20;;;;;;;14.46;78.79;101024.88;5064346;28;20024;-73
2021/08/29 03:38:59;;;;;;;14.40;8.77;;;;;;;14.49;78.90;101032.66;5063789;28;20075;-72
2021/08/29 03:41:27;;;;;;;14.68;8.63;;;;;;;14.48;78.85;101030.94;5064396;28;20028;-72
2021/08/29 03:43:53;;;;;;;13.60;8.52;;;;;;;14.49;78.65;101045.72;5064397;28;20025;-72
2021/08/29 03:46:19;;;;;;;8.35;6.03;;;;;;;14.51;78.60;101046.59;5064391;28;20024;-73
2021/08/29 03:48:44;;;;;;;14.70;7.95;;;;;;;14.50;78.55;101037.88;5064332;28;20021;-74
2021/08/29 03:51:14;;;;;;;14.52;8.27;;;;;;;14.50;78.57;101048.31;5064447;28;20017;-75
2021/08/29 03:53:40;;;;;;;11.18;7.03;;;;;;;14.46;78.78;101043.16;5062752;28;20486;-74
2021/08/29 03:56:06;;;;;;;13.50;7.88;;;;;;;14.45;78.78;101046.66;5064022;28;20465;-75
2021/08/29 03:58:35;;;;;;;14.95;8.52;;;;;;;14.46;78.73;101038.81;5064092;28;20024;-73
2021/08/29 04:01:00;;;;;;;15.82;7.00;;;;;;;14.37;78.90;101023.28;5064089;28;20013;-74
2021/08/29 04:03:26;;;;;;;15.25;8.80;;;;;;;14.43;79.05;101044.09;5063722;28;20028;-74
2021/08/29 04:05:52;;;;;;;15.13;8.55;;;;;;;14.45;78.85;101046.66;5062878;28;20092;-74
2021/08/29 04:08:24;;;;;;;13.27;8.05;;;;;;;14.47;78.84;101040.53;5064033;28;20025;-75
2021/08/29 04:10:50;;;;;;;;;;;;;;;14.53;78.66;101036.97;5064249;28;20037;-74
2021/08/29 04:13:16;;;;;;;16.90;9.18;;;;;;;14.44;78.78;101040.56;5062441;28;19915;-76
2021/08/29 04:15:42;;;;;;;13.80;7.68;;;;;;;14.44;78.97;101044.97;5064020;28;20045;-75
2021/08/29 04:18:09;;;;;;;10.55;6.32;;;;;;;14.53;78.52;101043.94;5063817;28;20021;-75
2021/08/29 04:20:35;;;;;;;13.57;8.10;;;;;;;14.44;78.91;101051.03;5062537;28;20043;-73
2021/08/29 04:23:00;;;;;;;11.35;7.25;;;;;;;14.44;78.71;101055.41;5063587;28;20513;-73
2021/08/29 04:25:26;;;;;;;12.93;8.25;;;;;;;14.47;78.76;101057.97;5063730;28;20021;-74
2021/08/29 04:27:51;;;;;;;11.43;7.75;;;;;;;14.41;78.83;101053.69;5063762;28;20021;-73
2021/08/29 04:30:18;;;;;;;13.98;8.45;;;;;;;14.41;78.73;101058.06;5063596;28;20477;-73
2021/08/29 04:32:47;;;;;;;13.85;8.35;;;;;;;14.48;78.84;101059.69;5063436;28;20301;-73
2021/08/29 04:35:12;;;;;;;10.88;7.13;;;;;;;14.43;78.95;101053.66;5063472;28;20112;-75
2021/08/29 04:37:37;;;;;;;11.25;6.93;;;;;;;14.40;78.99;101066.75;5063751;28;20028;-75
2021/08/29 04:40:03;;;;;;;13.57;8.20;;;;;;;14.46;78.99;101059.72;5063445;28;20464;-74
2021/08/29 04:42:28;;;;;;;15.40;8.50;;;;;;;14.44;79.06;101058.84;5063199;28;20032;-74
2021/08/29 04:44:54;;;;;;;16.67;8.80;;;;;;;14.42;79.02;101065.00;5063608;28;20150;-74
2021/08/29 04:47:19;;;;;;;13.57;7.30;;;;;;;14.40;78.91;101058.94;5063490;28;20028;-72
2021/08/29 04:49:44;;;;;;;13.10;7.82;;;;;;;14.41;79.14;101065.91;5061306;28;20088;-73
2021/08/29 04:52:10;;;;;;;13.38;8.45;;;;;;;14.38;79.06;101072.00;5061630;28;20036;-73
2021/08/29 04:54:35;;;;;;;13.32;7.55;;;;;;;14.37;79.01;101065.94;5063193;28;20528;-73
2021/08/29 04:57:00;;;;;;;12.73;8.18;;;;;;;14.41;79.09;101073.72;5063282;28;20025;-73
2021/08/29 04:59:26;;;;;;;12.10;8.65;;;;;;;14.41;78.95;101081.56;5063068;28;20028;-73
2021/08/29 05:01:51;;;;;;;13.38;7.68;;;;;;;14.46;78.77;101080.63;5063132;28;20025;-74
2021/08/29 05:04:16;;;;;;;12.43;7.50;;;;;;;14.48;78.58;101085.81;5063189;28;20123;-74
2021/08/29 05:06:42;;;;;;;14.25;7.50;;;;;;;14.49;78.77;101080.56;5063235;28;20045;-73
2021/08/29 05:09:07;;;;;;;11.35;6.93;;;;;;;14.43;78.82;101075.44;5063426;28;20107;-75
2021/08/29 05:11:32;;;;;;;12.90;7.28;;;;;;;14.36;78.73;101079.88;5061782;28;20051;-75
2021/08/29 05:13:58;;;;;;;11.93;7.20;;;;;;;14.47;78.49;101078.88;5063110;28;20431;-74
2021/08/29 05:16:23;;;;;;;11.60;7.50;;;;;;;14.46;78.89;101079.75;5063185;28;20056;-75
2021/08/29 05:18:48;;;;;;;14.93;8.68;;;;;;;14.47;78.47;101089.31;5062943;28;20025;-75
2021/08/29 05:21:14;;;;;;;20.42;7.70;;;;;;;14.53;78.23;101080.53;5063224;28;20025;-76
2021/08/29 05:23:39;;;;;;;12.90;7.55;;;;;;;14.54;78.53;101090.94;5061475;28;20096;-76
2021/08/29 05:26:04;;;;;;;16.35;9.30;;;;;;;14.56;78.19;101094.41;5063097;28;20071;-76
2021/08/29 05:28:30;;;;;;;14.70;9.60;;;;;;;14.47;78.52;101094.53;5063158;28;20017;-74
2021/08/29 05:30:55;;;;;;;15.05;7.95;;;;;;;14.53;78.40;101107.53;5061828;28;20032;-75
2021/08/29 05:33:21;;;;;;;17.23;9.13;;;;;;;14.55;78.40;101097.91;5063009;28;20021;-75
2021/08/29 05:35:46;;;;;;;19.38;10.00;;;;;;;14.53;78.58;101091.84;5063084;28;20021;-74
2021/08/29 05:38:11;;;;;;;12.75;7.07;;;;;;;14.53;78.29;101083.13;5062911;28;20032;-76
2021/08/29 05:40:37;;;;;;;13.93;8.35;;;;;;;14.58;78.56;101090.03;5063368;28;20029;-78
2021/08/29 05:43:02;;;;;;;14.20;9.18;;;;;;;14.66;78.45;101102.13;5061528;28;20048;-75
2021/08/29 05:45:27;;;;;;;16.17;8.55;;;;;;;14.70;78.24;101098.56;5062886;28;20089;-76
2021/08/29 05:47:53;;;;;;;8.80;5.07;;;;;;;14.78;77.66;101070.56;5062957;28;20040;-75
2021/08/29 05:50:18;;;;;;;15.50;7.97;;;;;;;14.80;78.02;101104.56;5062854;28;20180;-76
2021/08/29 05:52:43;;;;;;;15.65;9.13;;;;;;;14.83;77.51;101104.50;5062696;28;20036;-73
2021/08/29 05:55:09;;;;;;;13.63;7.20;;;;;;;14.82;77.72;101100.19;5061611;28;20017;-75
2021/08/29 05:57:34;;;;;;;13.05;7.32;;;;;;;14.83;77.46;101101.91;5062741;28;20032;-75
2021/08/29 06:00:00;;;;;;;12.45;8.18;;;;;;;14.93;77.38;101111.34;5062418;28;20493;-77
2021/08/29 06:02:25;;;;;;;14.35;8.45;;;;;;;14.94;77.19;101096.50;5064753;28;20033;-76
2021/08/29 06:04:50;;;;;;;12.40;7.35;;;;;;;15.03;77.00;101112.03;5066445;28;20025;-74
2021/08/29 06:07:16;;;;;;;11.10;7.10;;;;;;;15.04;76.88;101105.94;5066244;28;20028;-76
2021/08/29 06:09:41;;;;;;;12.35;7.13;;;;;;;15.10;76.51;101099.72;5066364;28;20017;-77
2021/08/29 06:12:10;;;;;;;9.60;6.05;;;;;;;15.19;76.27;101119.66;5064621;28;20106;-78
2021/08/29 06:14:37;;;;;;;9.48;6.70;;;;;;;15.28;75.96;101106.44;5064843;28;20021;-76
2021/08/29 06:17:03;;;;;;;9.52;5.82;;;;;;;15.46;75.77;101105.22;5066245;28;20025;-77
2021/08/29 06:19:28;;;;;;;9.52;5.00;;;;;;;15.68;75.47;101103.97;5066208;28;20085;-78
2021/08/29 06:21:53;;;;;;;11.02;5.60;;;;;;;15.81;75.07;101102.88;5065936;28;20029;-78
2021/08/29 06:24:19;;;;;;;9.10;6.50;;;;;;;16.03;73.78;101098.97;5065870;28;20025;-74
2021/08/29 06:26:44;;;;;;;11.20;6.18;;;;;;;16.24;74.26;101102.94;5066035;28;20031;-77
2021/08/29 06:29:10;;;;;;;9.50;5.93;;;;;;;16.53;73.18;101098.81;5066337;28;20051;-75
2021/08/29 06:31:36;;;;;;;9.20;5.68;;;;;;;16.62;71.38;101102.97;5065881;28;20155;-76
2021/08/29 06:34:01;;;;;;;7.53;5.28;;;;;;;16.75;71.66;101093.06;5065810;28;20500;-79
2021/08/29 06:36:29;;;;;;;8.52;5.15;;;;;;;16.95;70.29;101095.22;5066202;28;20017;-75
2021/08/29 06:38:57;;;;;;;6.88;4.80;;;;;;;17.01;69.41;101083.72;5065701;28;20024;-74
2021/08/29 06:41:23;;;;;;;7.57;4.45;;;;;;;17.24;69.87;101102.44;5065424;28;20039;-75
2021/08/29 06:43:49;;;;;;;9.13;4.97;;;;;;;17.63;68.13;101104.94;5064108;28;20025;-77
2021/08/29 06:46:14;;;;;;;8.80;4.78;;;;;;;17.83;68.19;101099.13;5064264;28;20043;-77
2021/08/29 06:48:39;;;;;;;8.85;5.07;;;;;;;18.08;66.61;101103.66;5065438;28;20027;-76
2021/08/29 06:51:05;;;;;;;7.88;4.53;;;;;;;18.10;66.24;101103.63;5065613;28;20020;-77
2021/08/29 06:53:30;;;;;;;6.38;4.35;;;;;;;18.06;65.31;101095.00;5063783;28;20017;-78
2021/08/29 06:55:56;;;;;;;6.28;4.90;;;;;;;17.86;64.76;101097.31;5065355;28;20031;-77
2021/08/29 06:58:21;;;;;;;7.82;5.43;;;;;;;17.53;65.21;101085.06;5065334;28;20055;-77
2021/08/29 07:00:47;;;;;;;5.65;3.33;;;;;;;17.23;66.20;101088.47;5065151;28;20075;-77
2021/08/29 07:03:12;;;;;;;7.93;6.00;;;;;;;17.12;66.27;101091.34;5064983;28;20055;-75
2021/08/29 07:05:37;;;;;;;9.00;5.50;;;;;;;16.94;66.66;101084.75;5065215;28;20063;-75
2021/08/29 07:08:03;;;;;;;5.97;4.60;;;;;;;16.84;66.96;101100.72;5065108;28;20031;-78
2021/08/29 07:10:29;;;;;;;6.75;4.82;;;;;;;16.63;67.50;101098.59;5064955;28;20057;-75
2021/08/29 07:12:54;;;;;;;7.75;4.32;;;;;;;16.57;68.23;101087.34;5064052;28;20029;-74
2021/08/29 07:15:19;;;;;;;7.30;5.07;;;;;;;16.75;68.12;101087.84;5064809;28;20521;-77
2021/08/29 07:17:45;;;;;;;7.60;5.13;;;;;;;16.71;68.29;101097.53;5063515;28;20020;-75
2021/08/29 07:20:11;;;;;;;6.93;4.70;;;;;;;16.81;68.41;101087.69;5064684;28;20076;-77
2021/08/29 07:22:37;;;;;;;9.77;5.35;;;;;;;16.86;68.01;101079.72;5064760;28;20025;-75
2021/08/29 07:25:02;;;;;;;9.23;5.38;;;;;;;16.84;68.27;101071.00;5064686;28;20028;-75
2021/08/29 07:27:27;;;;;;;6.90;4.40;;;;;;;17.04;68.05;101088.91;5063062;28;20017;-76
2021/08/29 07:29:56;;;;;;;6.13;4.00;;;;;;;17.41;67.24;101078.38;5062845;28;20025;-76
2021/08/29 07:32:21;;;;;;;7.53;5.25;;;;;;;17.68;66.68;101083.81;5064280;28;20029;-65
2021/08/29 07:34:47;;;;;;;6.97;4.68;;;;;;;17.92;66.05;101081.38;5064369;28;20089;-65
2021/08/29 07:37:12;;;;;;;8.82;5.53;;;;;;;18.00;65.33;101081.16;5064524;28;20036;-66
2021/08/29 07:39:40;;;;;;;8.10;4.75;;;;;;;18.20;65.32;101086.72;5064543;28;20021;-65
2021/08/29 07:42:06;;;;;;;5.97;4.43;;;;;;;18.18;64.31;101087.66;5064620;28;20032;-66
2021/08/29 07:44:31;;;;;;;6.47;4.80;;;;;;;18.13;64.33;101094.84;5064215;28;20033;-65
2021/08/29 07:46:56;;;;;;;8.68;4.93;;;;;;;18.04;64.46;101093.28;5064182;28;20028;-65
2021/08/29 07:49:22;;;;;;;6.80;4.85;;;;;;;18.03;64.53;101100.34;5062611;28;20033;-65
2021/08/29 07:51:47;;;;;;;6.50;4.20;;;;;;;18.29;64.14;101090.84;5063924;28;20024;-65
2021/08/29 07:54:12;;;;;;;6.13;4.32;;;;;;;18.66;63.42;101093.22;5063821;28;20029;-65
2021/08/29 07:56:38;;;;;;;8.18;4.18;;;;;;;19.08;62.40;101086.66;5063971;28;20029;-65
2021/08/29 07:59:03;;;;;;;7.25;5.43;;;;;;;19.37;61.76;101094.50;5062457;28;20060;-65
2021/08/29 08:01:28;;;;;;;6.85;5.03;;;;;;;19.47;60.09;101095.03;5064041;28;20025;-63
2021/08/29 08:03:54;;;;;;;8.57;5.35;;;;;;;19.19;61.16;101102.97;5063804;28;20094;-65
2021/08/29 08:06:19;;;;;;;7.38;5.00;;;;;;;19.06;61.54;101112.13;5064119;28;20103;-65
2021/08/29 08:08:44;;;;;;;6.00;4.35;;;;;;;18.93;61.19;101116.97;5063913;28;20025;-66
2021/08/29 08:11:10;;;;;;;8.80;5.30;;;;;;;18.73;61.61;101110.56;5063737;28;20049;-65
2021/08/29 08:13:35;;;;;;;7.82;5.38;;;;;;;18.56;62.57;101103.22;5063504;28;20025;-65
2021/08/29 08:16:00;;;;;;;8.38;5.05;;;;;;;18.65;62.52;101100.28;5063659;28;20188;-65
2021/08/29 08:18:26;;;;;;;8.43;4.57;;;;;;;18.91;62.20;101109.09;5063628;28;20150;-66
2021/08/29 08:20:53;;;;;;;7.10;5.60;;;;;;;19.03;61.41;101093.81;5063852;28;20031;-64
2021/08/29 08:23:18;;;;;;;9.13;6.60;;;;;;;19.49;60.42;101099.31;5063631;28;20047;-64
2021/08/29 08:25:43;;;;;;;7.80;5.57;;;;;;;19.68;60.16;101103.97;5063246;28;20115;-65
2021/08/29 08:28:09;;;;;;;7.07;2.97;;;;;;;19.98;59.70;101111.66;5063470;28;20028;-66
2021/08/29 08:30:34;;;;;;;7.88;5.45;;;;;;;20.25;59.20;101093.13;5063223;28;20031;-65
2021/08/29 08:33:00;;;;;;;10.70;4.68;;;;;;;21.06;58.71;101097.00;5063032;28;20017;-65
2021/08/29 08:35:25;;;;;;;7.22;4.97;;;;;;;21.72;56.42;101108.31;5063401;28;20071;-66
2021/08/29 08:37:50;;;;;;;6.53;4.65;;;;;;;21.91;54.74;101110.16;5063513;28;20020;-65
2021/08/29 08:40:19;;;;;;;7.30;5.20;;;;;;;21.69;54.85;101113.72;5063474;28;20036;-64
2021/08/29 08:42:48;;;;;;;9.23;4.80;;;;;;;21.42;55.07;101108.72;5063424;28;20086;-65
2021/08/29 08:45:13;;;;;;;8.75;4.78;;;;;;;21.56;55.66;101110.75;5062161;28;20025;-66
2021/08/29 08:47:42;;;;;;;6.45;5.05;;;;;;;21.55;55.00;101109.88;5063323;28;20078;-70
2021/08/29 08:50:09;;;;;;;5.95;4.95;;;;;;;21.26;54.71;101112.00;5062945;28;20129;-65
2021/08/29 08:52:36;;;;;;;8.68;6.68;;;;;;;20.70;55.38;101116.91;5063260;28;20032;-66
2021/08/29 08:55:03;;;;;;;8.05;5.60;;;;;;;20.19;56.66;101125.00;5063275;28;20493;-65
2021/08/29 08:57:29;;;;;;;6.97;5.70;;;;;;;19.99;58.32;101108.09;5063144;28;20025;-63
2021/08/29 08:59:54;;;;;;;6.88;5.10;;;;;;;20.16;58.34;101111.94;5062931;28;20099;-63
2021/08/29 09:02:21;;;;;;;7.03;5.45;;;;;;;20.95;57.85;101105.38;5063079;28;20588;-64
2021/08/29 09:04:48;;;;;;;5.72;4.10;;;;;;;21.82;53.89;101111.41;5063066;28;20538;-64
2021/08/29 09:07:13;;;;;;;7.32;5.38;;;;;;;21.75;53.43;101124.03;5063228;28;20092;-64
2021/08/29 09:09:40;;;;;;;6.18;4.78;;;;;;;21.63;53.59;101117.47;5062847;28;20074;-64
2021/08/29 09:12:06;;;;;;;8.35;5.80;;;;;;;21.04;54.44;101118.19;5062785;28;20049;-64
2021/08/29 09:14:44;;;;;;;8.15;6.20;;;;;;;20.69;56.03;101109.88;5062505;28;20045;-65
2021/08/29 09:17:30;;;;;;;6.80;5.50;;;;;;;20.70;56.62;101130.09;5062591;28;20029;-64
2021/08/29 09:20:36;;;;;;;7.35;5.95;;;;;;;21.04;55.68;101120.81;5062877;28;20053;-64
2021/08/29 09:23:05;;;;;;;8.00;6.30;;;;;;;20.92;56.41;101121.34;5062785;28;20025;-65
2021/08/29 09:25:35;;;;;;;7.30;5.60;;;;;;;20.78;56.27;101117.44;5063055;28;20033;-65
2021/08/29 09:28:02;;;;;;;8.23;5.35;;;;;;;20.42;57.17;101126.75;5062921;28;20028;-65
2021/08/29 09:30:30;;;;;;;9.88;6.20;;;;;;;20.19;57.71;101114.44;5062769;28;20377;-64
2021/08/29 09:33:03;;;;;;;8.70;5.93;;;;;;;19.95;58.65;101117.06;5062669;28;20021;-63
2021/08/29 09:35:32;;;;;;;9.95;5.85;;;;;;;19.85;58.89;101113.88;5062756;28;20507;-64
2021/08/29 09:37:59;;;;;;;8.75;6.40;;;;;;;19.79;59.45;101100.94;5066069;28;20052;-63
2021/08/29 09:40:27;;;;;;;9.55;6.07;;;;;;;19.62;59.58;101105.03;5066617;28;20025;-64
2021/08/29 09:42:55;;;;;;;10.55;5.90;;;;;;;19.49;60.11;101112.50;5066672;28;20058;-64
2021/08/29 09:45:24;;;;;;;6.63;5.28;;;;;;;19.47;60.52;101106.44;5065485;28;20488;-66
2021/08/29 09:47:50;;;;;;;10.55;6.53;;;;;;;19.46;60.65;101115.22;5066530;28;20089;-65
2021/08/29 09:50:19;;;;;;;8.20;6.28;;;;;;;19.49;60.84;101115.13;5066554;28;20021;-63
2021/08/29 09:52:45;;;;;;;9.95;5.82;;;;;;;19.49;60.79;101104.59;5066394;28;20063;-63
2021/08/29 09:55:11;;;;;;;9.55;6.32;;;;;;;19.48;60.79;101107.28;5066145;28;20025;-64
2021/08/29 09:57:36;;;;;;;8.63;6.38;;;;;;;19.39;60.82;101114.56;5066380;28;20032;-67
2021/08/29 10:00:06;;;;;;;7.60;5.97;;;;;;;19.38;61.34;101107.59;5066314;28;20052;-67
2021/08/29 10:02:32;;;;;;;7.78;6.20;;;;;;;19.26;61.06;101106.25;5066422;28;20024;-67
2021/08/29 10:05:19;;;;;;;7.78;6.47;;;;;;;19.31;61.41;101114.84;5066064;28;20028;-66
2021/08/29 10:07:58;;;;;;;7.50;5.70;;;;;;;19.40;61.28;101120.72;5064696;28;20025;-60
2021/08/29 10:10:26;;;;;;;8.05;6.00;;;;;;;19.66;61.41;101108.41;5066005;28;20053;-68
2021/08/29 10:12:53;;;;;;;7.50;5.35;;;;;;;20.60;59.21;101108.47;5066233;28;20124;-70
2021/08/29 10:15:19;;;;;;;7.70;5.82;;;;;;;21.41;56.49;101120.19;5065914;28;20092;-68
2021/08/29 10:17:46;;;;;;;9.57;6.38;;;;;;;21.75;55.19;101107.28;5066499;28;20100;-71
2021/08/29 10:20:16;;;;;;;7.82;5.65;;;;;;;22.26;53.98;101105.03;5065726;28;20025;-67
2021/08/29 10:22:43;;;;;;;7.72;5.82;;;;;;;22.73;52.79;101116.06;5065792;28;20123;-67
2021/08/29 10:25:09;;;;;;;9.40;6.13;;;;;;;22.83;52.40;101099.75;5065774;28;20396;-67
2021/08/29 10:27:38;;;;;;;8.15;6.00;;;;;;;22.88;51.67;101114.47;5065958;28;20036;-66
2021/08/29 10:30:09;;;;;;;9.10;5.50;;;;;;;22.54;52.06;101101.06;5065757;28;20025;-66
2021/08/29 10:32:35;;;;;;;;;;;;;;;22.26;53.13;101091.81;5066031;28;20032;-66
2021/08/29 10:35:07;;;;;;;7.22;5.45;;;;;;;22.23;53.17;101091.94;5065317;28;19963;-66
2021/08/29 10:37:45;;;;;;;6.10;4.43;;;;;;;22.60;52.50;101094.66;5065444;28;20037;-67
2021/08/29 10:40:13;;;;;;;6.95;5.43;;;;;;;22.55;51.73;101083.41;5065765;28;20104;-66
2021/08/29 10:42:43;;;;;;;8.70;6.00;;;;;;;22.22;52.96;101095.50;5065065;28;20032;-66
2021/08/29 10:45:09;;;;;;;8.63;5.80;;;;;;;22.15;52.70;101096.72;5065454;28;20078;-66
2021/08/29 10:47:37;;;;;;;6.25;5.13;;;;;;;22.04;53.05;101087.50;5064917;28;20099;-66
2021/08/29 10:50:04;;;;;;;7.90;5.43;;;;;;;21.71;53.82;101092.50;5064853;28;20017;-66
2021/08/29 10:52:32;;;;;;;6.65;5.63;;;;;;;21.51;54.10;101073.13;5064549;28;20043;-66
2021/08/29 10:55:03;;;;;;;7.32;5.00;;;;;;;21.36;54.35;101091.34;5065361;28;20028;-64
2021/08/29 10:57:33;;;;;;;10.20;6.15;;;;;;;21.16;54.81;101092.19;5065716;28;20401;-67
2021/08/29 11:00:14;;;;;;;6.43;5.20;;;;;;;21.03;55.07;101098.00;5066315;28;20048;-68
2021/08/29 11:02:50;;;;;;;6.95;5.47;;;;;;;20.95;55.36;101081.63;5064245;28;20401;-67
2021/08/29 11:05:35;;;;;;;7.85;5.90;;;;;;;20.66;55.77;101102.09;5065391;28;20036;-67
2021/08/29 11:08:20;;;;;;;7.55;5.85;;;;;;;20.46;57.11;101092.34;5057833;28;20102;-67
2021/08/29 11:10:47;;;;;;;7.20;5.72;;;;;;;20.53;56.98;101081.50;5065203;28;20041;-67
2021/08/29 11:13:27;;;;;;;8.30;6.10;;;;;;;20.64;56.92;101098.69;5065131;28;20025;-67
2021/08/29 11:16:13;;;;;;;7.30;6.10;;;;;;;21.24;55.46;101094.50;5065045;28;20072;-67
2021/08/29 11:19:01;;;;;;;7.07;5.15;;;;;;;22.15;53.74;101094.94;5064867;28;20047;-67
2021/08/29 11:21:38;;;;;;;6.72;5.35;;;;;;;22.92;51.97;101096.66;5065081;28;20109;-67
2021/08/29 11:24:05;;;;;;;7.63;5.32;;;;;;;23.25;50.26;101082.63;5065091;28;20029;-67